Time;durP1;ratioP1;P1;durP2;ratioP2;P2;SDS_P1;SDS_P2;PMS_P1;PMS_P2;Temp;Humidity;BMP_temperature;BMP_pressure;BME280_temperature;BME280_humidity;BME280_pressure;Samples;Min_cycle;Max_cycle;Signal;HPM_P1;HPM_P2
2023/05/13 00:02:07;;;;;;;4.82;3.53;;;;;;;;;;4984180;28;20057;-81
2023/05/13 00:04:38;;;;;;;4.95;3.90;;;;;;;;;;4983904;28;20054;-81
2023/05/13 00:07:17;;;;;;;4.15;3.38;;;;;;;;;;4984378;28;20080;-81
2023/05/13 00:09:48;;;;;;;3.72;3.33;;;;;;;;;;4999825;28;20112;-81
2023/05/13 00:12:15;;;;;;;5.05;3.47;;;;;;;;;;5015108;28;20387;-81
2023/05/13 00:14:48;;;;;;;5.15;3.50;;;;;;;;;;5020609;28;20061;-81
2023/05/13 00:17:18;;;;;;;;;;;;;;;;;;4999640;28;20049;-81
2023/05/13 00:19:53;;;;;;;3.67;3.38;;;;;;;;;;5014156;28;19925;-83
2023/05/13 00:22:26;;;;;;;5.38;3.22;;;;;;;;;;4998763;28;20157;-81
2023/05/13 00:24:59;;;;;;;3.83;3.30;;;;;;;;;;4983403;28;20062;-83
2023/05/13 00:27:31;;;;;;;3.38;3.08;;;;;;;;;;4998622;28;20058;-82
2023/05/13 00:30:02;;;;;;;4.07;3.60;;;;;;;;;;5014125;28;20103;-80
2023/05/13 00:32:31;;;;;;;4.33;3.93;;;;;;;;;;4982357;28;20064;-81
2023/05/13 00:34:58;;;;;;;6.45;3.80;;;;;;;;;;5015215;28;20448;-84
2023/05/13 00:37:32;;;;;;;4.03;3.63;;;;;;;;;;4998793;28;20085;-81
2023/05/13 00:40:02;;;;;;;4.05;3.65;;;;;;;;;;4999326;28;20147;-81
2023/05/13 00:42:33;;;;;;;3.85;3.50;;;;;;;;;;4983222;28;20421;-81
2023/05/13 00:45:10;;;;;;;3.80;3.00;;;;;;;;;;4996489;28;20077;-82
2023/05/13 00:47:44;;;;;;;3.40;3.10;;;;;;;;;;4982026;28;20426;-81
2023/05/13 00:50:15;;;;;;;3.67;3.35;;;;;;;;;;4996291;28;20046;-82
2023/05/13 00:52:46;;;;;;;3.83;3.20;;;;;;;;;;4981206;28;20062;-82
2023/05/13 00:55:16;;;;;;;3.65;3.35;;;;;;;;;;4997425;28;20053;-83
2023/05/13 00:57:43;;;;;;;4.75;3.45;;;;;;;;;;5000123;28;20089;-82
2023/05/13 01:00:14;;;;;;;3.67;3.38;;;;;;;;;;5015821;28;20502;-82
2023/05/13 01:02:50;;;;;;;4.03;3.45;;;;;;;;;;5015777;28;20481;-82
2023/05/13 01:05:20;;;;;;;3.28;2.97;;;;;;;;;;4999689;28;20054;-81
2023/05/13 01:08:16;;;;;;;4.32;3.50;;;;;;;;;;5016635;28;20057;-81
2023/05/13 01:10:48;;;;;;;3.30;2.97;;;;;;;;;;4999936;28;20498;-80
2023/05/13 01:13:27;;;;;;;5.70;4.30;;;;;;;;;;4983334;28;20056;-79
2023/05/13 01:16:11;;;;;;;3.50;3.05;;;;;;;;;;4983635;28;20053;-79
2023/05/13 01:19:07;;;;;;;3.53;3.22;;;;;;;;;;4999621;28;20054;-80
2023/05/13 01:21:38;;;;;;;3.65;3.35;;;;;;;;;;5015055;28;20060;-80
2023/05/13 01:24:06;;;;;;;3.88;3.58;;;;;;;;;;4983008;28;20062;-80
2023/05/13 01:26:41;;;;;;;4.93;3.33;;;;;;;;;;4998940;28;20565;-81
2023/05/13 01:29:08;;;;;;;3.63;3.30;;;;;;;;;;4998942;28;20501;-80
2023/05/13 01:31:42;;;;;;;3.67;3.38;;;;;;;;;;5014759;28;20110;-81
2023/05/13 01:34:18;;;;;;;4.25;3.63;;;;;;;;;;4999988;28;20058;-80
2023/05/13 01:36:46;;;;;;;5.35;3.83;;;;;;;;;;4983505;28;20073;-82
2023/05/13 01:39:17;;;;;;;5.18;3.88;;;;;;;;;;4999972;28;20061;-81
2023/05/13 01:41:44;;;;;;;6.38;3.83;;;;;;;;;;5002577;28;20100;-83
2023/05/13 01:44:17;;;;;;;4.13;3.72;;;;;;;;;;4982619;28;20064;-84
2023/05/13 01:46:49;;;;;;;3.60;3.30;;;;;;;;;;4984898;28;20103;-84
2023/05/13 01:49:19;;;;;;;6.13;3.90;;;;;;;;;;4980854;28;20089;-83
2023/05/13 01:51:52;;;;;;;;;;;;;;;;;;4966086;28;20108;-83
2023/05/13 01:54:20;;;;;;;4.95;4.30;;;;;;;;;;4977991;28;19922;-83
2023/05/13 01:56:51;;;;;;;4.07;3.60;;;;;;;;;;4961790;28;20062;-84
2023/05/13 01:59:27;;;;;;;4.72;3.90;;;;;;;;;;4978877;28;20117;-83
2023/05/13 02:01:57;;;;;;;3.92;3.53;;;;;;;;;;4977689;28;20049;-83
2023/05/13 02:04:28;;;;;;;4.55;4.07;;;;;;;;;;5001907;28;20053;-83
2023/05/13 02:06:56;;;;;;;5.60;3.97;;;;;;;;;;4997553;28;20081;-83
2023/05/13 02:09:23;;;;;;;4.53;3.75;;;;;;;;;;4981711;28;20096;-83
2023/05/13 02:11:53;;;;;;;5.38;4.53;;;;;;;;;;4999333;28;20085;-83
2023/05/13 02:14:21;;;;;;;4.40;4.00;;;;;;;;;;4984667;28;20048;-82
2023/05/13 02:16:49;;;;;;;5.35;4.18;;;;;;;;;;4982427;28;20075;-84
2023/05/13 02:19:20;;;;;;;6.18;3.83;;;;;;;;;;4999710;28;20077;-80
2023/05/13 02:21:47;;;;;;;3.85;3.50;;;;;;;;;;4998938;28;20057;-79
2023/05/13 02:24:16;;;;;;;4.45;3.90;;;;;;;;;;4998648;28;20057;-79
2023/05/13 02:26:46;;;;;;;5.18;4.03;;;;;;;;;;4978691;28;20056;-78
2023/05/13 02:29:18;;;;;;;4.47;3.75;;;;;;;;;;4994319;28;20064;-79
2023/05/13 02:31:46;;;;;;;3.80;3.50;;;;;;;;;;4983567;28;20494;-79
2023/05/13 02:34:13;;;;;;;3.58;3.28;;;;;;;;;;4995473;28;20498;-79
2023/05/13 02:36:41;;;;;;;3.70;3.30;;;;;;;;;;5010647;28;20049;-79
2023/05/13 02:39:11;;;;;;;8.02;3.95;;;;;;;;;;4974690;28;20062;-78
2023/05/13 02:41:39;;;;;;;3.85;3.55;;;;;;;;;;4973433;28;20520;-79
2023/05/13 02:44:06;;;;;;;3.30;3.00;;;;;;;;;;4977367;28;20051;-78
2023/05/13 02:46:34;;;;;;;8.02;4.00;;;;;;;;;;5000087;28;20054;-78
2023/05/13 02:49:07;;;;;;;3.60;3.30;;;;;;;;;;4997971;28;20064;-78
2023/05/13 02:51:34;;;;;;;6.35;3.30;;;;;;;;;;5011973;28;20058;-78
2023/05/13 02:54:02;;;;;;;3.60;3.00;;;;;;;;;;4985480;28;20054;-79
2023/05/13 02:56:29;;;;;;;4.03;3.45;;;;;;;;;;5010652;28;20049;-79
2023/05/13 02:59:00;;;;;;;6.13;3.45;;;;;;;;;;4994933;28;20054;-79
2023/05/13 03:01:31;;;;;;;3.65;3.00;;;;;;;;;;4993736;28;20052;-79
2023/05/13 03:04:01;;;;;;;4.68;3.47;;;;;;;;;;5010324;28;20060;-79
2023/05/13 03:06:28;;;;;;;4.30;3.47;;;;;;;;;;4994165;28;20058;-79
2023/05/13 03:08:56;;;;;;;3.63;3.20;;;;;;;;;;5010578;28;20054;-80
2023/05/13 03:11:28;;;;;;;3.35;3.05;;;;;;;;;;4978588;28;20422;-78
2023/05/13 03:13:58;;;;;;;3.90;3.20;;;;;;;;;;5010223;28;20053;-78
2023/05/13 03:16:28;;;;;;;2.70;2.50;;;;;;;;;;4979633;28;20096;-79
2023/05/13 03:18:55;;;;;;;3.20;2.90;;;;;;;;;;4994940;28;20058;-80
2023/05/13 03:21:22;;;;;;;5.50;2.70;;;;;;;;;;4978724;28;20049;-79
2023/05/13 03:23:51;;;;;;;3.42;2.78;;;;;;;;;;4994750;28;20054;-80
2023/05/13 03:26:20;;;;;;;3.25;2.95;;;;;;;;;;5011047;28;20501;-80
2023/05/13 03:28:48;;;;;;;4.47;3.10;;;;;;;;;;4994984;28;20506;-80
2023/05/13 03:31:18;;;;;;;2.70;2.50;;;;;;;;;;4994693;28;20050;-80
2023/05/13 03:33:48;;;;;;;4.28;2.90;;;;;;;;;;4995694;28;20057;-79
2023/05/13 03:36:21;;;;;;;5.68;2.90;;;;;;;;;;4995618;28;20108;-81
2023/05/13 03:38:54;;;;;;;3.58;2.92;;;;;;;;;;4995376;28;20053;-80
2023/05/13 03:41:27;;;;;;;3.00;2.80;;;;;;;;;;4981894;28;20125;-81
2023/05/13 03:44:03;;;;;;;4.88;3.33;;;;;;;;;;4984123;28;20132;-83
2023/05/13 03:46:34;;;;;;;3.03;2.47;;;;;;;;;;4982876;28;20058;-82
2023/05/13 03:49:12;;;;;;;4.43;3.00;;;;;;;;;;4966315;28;20050;-82
2023/05/13 03:51:39;;;;;;;4.05;3.22;;;;;;;;;;4994102;28;20038;-83
2023/05/13 03:54:09;;;;;;;4.13;2.90;;;;;;;;;;4978880;28;20060;-83
2023/05/13 03:56:36;;;;;;;3.45;3.10;;;;;;;;;;4995101;28;20057;-83
2023/05/13 03:59:04;;;;;;;4.00;2.90;;;;;;;;;;4978311;28;20058;-83
2023/05/13 04:01:38;;;;;;;5.85;3.25;;;;;;;;;;5002440;28;20052;-83
2023/05/13 04:04:11;;;;;;;3.88;2.92;;;;;;;;;;4998060;28;20057;-82
2023/05/13 04:06:51;;;;;;;3.60;2.95;;;;;;;;;;4984578;28;20524;-83
2023/05/13 04:09:25;;;;;;;3.58;2.90;;;;;;;;;;4999054;28;20050;-80
2023/05/13 04:11:56;;;;;;;3.33;3.03;;;;;;;;;;4997467;28;20144;-80
2023/05/13 04:14:26;;;;;;;3.40;3.10;;;;;;;;;;5014363;28;20142;-80
2023/05/13 04:16:54;;;;;;;3.15;2.80;;;;;;;;;;5013632;28;20084;-80
2023/05/13 04:19:22;;;;;;;3.50;3.20;;;;;;;;;;4998022;28;20056;-79
2023/05/13 04:21:52;;;;;;;3.85;3.55;;;;;;;;;;5001007;28;20042;-80
2023/05/13 04:24:20;;;;;;;6.63;3.20;;;;;;;;;;5017526;28;20054;-80
2023/05/13 04:26:54;;;;;;;3.47;3.17;;;;;;;;;;5017142;28;20422;-80
2023/05/13 04:29:24;;;;;;;4.03;3.03;;;;;;;;;;5001184;28;20510;-80
2023/05/13 04:31:54;;;;;;;4.72;2.70;;;;;;;;;;5001772;28;20425;-80
2023/05/13 04:34:22;;;;;;;5.95;2.85;;;;;;;;;;4997818;28;20077;-80
2023/05/13 04:36:49;;;;;;;3.78;2.60;;;;;;;;;;4989166;28;20081;-80
2023/05/13 04:39:17;;;;;;;5.10;2.88;;;;;;;;;;5003832;28;20049;-80
2023/05/13 04:41:47;;;;;;;3.38;2.97;;;;;;;;;;5001936;28;20514;-79
2023/05/13 04:44:17;;;;;;;3.97;3.00;;;;;;;;;;4986583;28;20050;-82
2023/05/13 04:46:46;;;;;;;3.35;2.83;;;;;;;;;;5005982;28;20046;-81
2023/05/13 04:49:14;;;;;;;3.10;2.80;;;;;;;;;;4982053;28;20129;-78
2023/05/13 04:51:42;;;;;;;3.30;2.92;;;;;;;;;;5014070;28;20057;-79
2023/05/13 04:54:17;;;;;;;3.75;3.20;;;;;;;;;;5015383;28;20129;-77
2023/05/13 04:56:47;;;;;;;3.80;2.83;;;;;;;;;;4996594;28;20080;-77
2023/05/13 04:59:15;;;;;;;4.18;2.60;;;;;;;;;;4996674;28;20417;-76
2023/05/13 05:01:43;;;;;;;4.22;3.10;;;;;;;;;;4996895;28;20049;-77
2023/05/13 05:04:11;;;;;;;3.78;3.10;;;;;;;;;;5013548;28;20081;-77
2023/05/13 05:06:39;;;;;;;3.28;3.00;;;;;;;;;;5014764;28;20049;-78
2023/05/13 05:09:08;;;;;;;4.10;3.25;;;;;;;;;;4999511;28;20049;-78
2023/05/13 05:11:37;;;;;;;6.13;3.17;;;;;;;;;;4998852;28;20053;-77
2023/05/13 05:14:04;;;;;;;6.10;4.22;;;;;;;;;;5015576;28;20518;-78
2023/05/13 05:16:32;;;;;;;5.65;4.47;;;;;;;;;;5015510;28;20080;-78
2023/05/13 05:19:02;;;;;;;5.32;3.85;;;;;;;;;;4982974;28;20502;-78
2023/05/13 05:21:30;;;;;;;4.78;3.35;;;;;;;;;;5016690;28;20125;-79
2023/05/13 05:24:01;;;;;;;4.40;3.35;;;;;;;;;;5007099;28;20062;-78
2023/05/13 05:26:28;;;;;;;3.92;3.00;;;;;;;;;;5012500;28;20421;-78
2023/05/13 05:28:56;;;;;;;3.20;2.88;;;;;;;;;;5015280;28;20076;-77
2023/05/13 05:31:26;;;;;;;3.67;3.22;;;;;;;;;;5015733;28;20491;-79
2023/05/13 05:33:55;;;;;;;3.10;2.50;;;;;;;;;;5012986;28;20057;-79
2023/05/13 05:36:26;;;;;;;5.15;3.00;;;;;;;;;;5002059;28;20089;-79
2023/05/13 05:39:02;;;;;;;4.00;2.60;;;;;;;;;;5000978;28;20065;-79
2023/05/13 05:41:30;;;;;;;4.13;3.25;;;;;;;;;;5020554;28;20058;-78
2023/05/13 05:43:58;;;;;;;3.35;3.05;;;;;;;;;;4989208;28;20058;-78
2023/05/13 05:46:34;;;;;;;4.97;2.90;;;;;;;;;;5017337;28;20428;-79
2023/05/13 05:49:03;;;;;;;3.85;3.13;;;;;;;;;;5002475;28;20414;-79
2023/05/13 05:51:32;;;;;;;6.20;3.08;;;;;;;;;;5000225;28;20054;-79
2023/05/13 05:54:00;;;;;;;3.25;2.95;;;;;;;;;;5001032;28;20054;-79
2023/05/13 05:56:30;;;;;;;3.20;2.85;;;;;;;;;;4984670;28;20050;-79
2023/05/13 05:59:07;;;;;;;2.67;2.47;;;;;;;;;;5000271;28;20061;-79
2023/05/13 06:01:35;;;;;;;2.92;2.53;;;;;;;;;;4999672;28;20057;-78
2023/05/13 06:04:06;;;;;;;4.57;2.90;;;;;;;;;;5015633;28;20053;-78
2023/05/13 06:06:39;;;;;;;3.38;2.88;;;;;;;;;;4983248;28;20049;-78
2023/05/13 06:09:06;;;;;;;3.08;2.88;;;;;;;;;;4998234;28;20112;-79
2023/05/13 06:11:35;;;;;;;2.80;2.60;;;;;;;;;;5004316;28;20076;-77
2023/05/13 06:14:03;;;;;;;4.07;2.70;;;;;;;;;;4982637;28;20053;-78
2023/05/13 06:16:30;;;;;;;3.58;2.58;;;;;;;;;;4996009;28;20570;-77
2023/05/13 06:18:58;;;;;;;3.58;3.13;;;;;;;;;;4993525;28;20050;-78
2023/05/13 06:21:30;;;;;;;4.35;2.85;;;;;;;;;;5007823;28;20057;-78
2023/05/13 06:24:03;;;;;;;2.63;2.42;;;;;;;;;;5000757;28;20095;-78
2023/05/13 06:26:36;;;;;;;5.45;3.42;;;;;;;;;;4997287;28;20057;-78
2023/05/13 06:29:11;;;;;;;5.18;2.83;;;;;;;;;;5004185;28;20046;-78
2023/05/13 06:31:39;;;;;;;4.13;2.42;;;;;;;;;;4998588;28;20056;-79
2023/05/13 06:34:07;;;;;;;3.38;2.40;;;;;;;;;;5012830;28;20050;-78
2023/05/13 06:36:34;;;;;;;2.88;2.63;;;;;;;;;;4994989;28;20427;-78
2023/05/13 06:39:10;;;;;;;4.53;2.58;;;;;;;;;;4979450;28;20062;-77
2023/05/13 06:41:54;;;;;;;4.00;3.17;;;;;;;;;;4980110;28;20053;-78
2023/05/13 06:44:22;;;;;;;4.90;3.08;;;;;;;;;;5012988;28;20473;-79
2023/05/13 06:46:53;;;;;;;4.13;3.72;;;;;;;;;;4988892;28;20061;-78
2023/05/13 06:49:23;;;;;;;3.30;2.78;;;;;;;;;;4997452;28;20120;-78
2023/05/13 06:51:58;;;;;;;6.85;3.00;;;;;;;;;;4982983;28;20129;-79
2023/05/13 06:54:31;;;;;;;3.85;3.15;;;;;;;;;;4998363;28;20089;-80
2023/05/13 06:57:06;;;;;;;3.50;2.75;;;;;;;;;;4997988;28;20949;-79
2023/05/13 06:59:38;;;;;;;3.22;2.92;;;;;;;;;;4997453;28;20406;-78
2023/05/13 07:02:08;;;;;;;3.55;2.38;;;;;;;;;;4996152;28;20049;-77
2023/05/13 07:04:43;;;;;;;3.40;3.10;;;;;;;;;;4995949;28;20494;-77
2023/05/13 07:07:14;;;;;;;4.88;2.70;;;;;;;;;;5010720;28;20045;-77
2023/05/13 07:10:00;;;;;;;4.05;2.83;;;;;;;;;;4979001;28;20059;-76
2023/05/13 07:12:37;;;;;;;3.17;2.58;;;;;;;;;;4975771;28;20069;-76
2023/05/13 07:15:08;;;;;;;5.90;3.17;;;;;;;;;;4977121;28;20501;-76
2023/05/13 07:17:36;;;;;;;3.25;2.58;;;;;;;;;;4991618;28;20560;-75
2023/05/13 07:20:05;;;;;;;4.70;2.78;;;;;;;;;;5008722;28;20068;-76
2023/05/13 07:22:33;;;;;;;4.40;2.80;;;;;;;;;;4997669;28;20126;-76
2023/05/13 07:25:01;;;;;;;2.63;2.30;;;;;;;;;;4973218;28;20105;-76
2023/05/13 07:27:28;;;;;;;3.20;2.50;;;;;;;;;;4989441;28;20046;-76
2023/05/13 07:29:56;;;;;;;3.47;2.97;;;;;;;;;;4994846;28;20058;-75
2023/05/13 07:32:24;;;;;;;2.85;2.55;;;;;;;;;;5009992;28;20141;-76
2023/05/13 07:34:52;;;;;;;2.90;2.58;;;;;;;;;;5008050;28;20089;-75
2023/05/13 07:37:19;;;;;;;5.30;2.90;;;;;;;;;;4992639;28;20064;-76
2023/05/13 07:39:50;;;;;;;2.58;2.38;;;;;;;;;;4988969;28;20566;-75
2023/05/13 07:42:18;;;;;;;3.30;2.30;;;;;;;;;;4973918;28;20050;-76
2023/05/13 07:44:45;;;;;;;3.42;3.13;;;;;;;;;;4989477;28;20057;-75
2023/05/13 07:47:13;;;;;;;5.70;2.60;;;;;;;;;;4976626;28;20085;-75
2023/05/13 07:49:41;;;;;;;2.97;2.67;;;;;;;;;;4996371;28;20506;-75
2023/05/13 07:52:11;;;;;;;3.03;2.42;;;;;;;;;;5019731;28;20054;-76
2023/05/13 07:54:39;;;;;;;4.88;2.67;;;;;;;;;;5026699;28;20510;-75
2023/05/13 07:57:06;;;;;;;4.45;2.30;;;;;;;;;;4998283;28;20057;-76
2023/05/13 07:59:36;;;;;;;2.78;2.47;;;;;;;;;;4985745;28;20056;-76
2023/05/13 08:02:07;;;;;;;3.08;2.78;;;;;;;;;;5012112;28;20078;-76
2023/05/13 08:04:34;;;;;;;4.18;2.97;;;;;;;;;;4994333;28;20121;-77
2023/05/13 08:07:02;;;;;;;3.05;2.60;;;;;;;;;;5012030;28;20053;-77
2023/05/13 08:09:30;;;;;;;3.13;2.83;;;;;;;;;;4999765;28;20133;-80
2023/05/13 08:12:01;;;;;;;3.42;3.10;;;;;;;;;;4988293;28;20073;-78
2023/05/13 08:14:29;;;;;;;4.10;3.70;;;;;;;;;;5010876;28;20054;-78
2023/05/13 08:17:00;;;;;;;2.72;2.53;;;;;;;;;;5018027;28;20057;-77
2023/05/13 08:19:32;;;;;;;4.95;3.20;;;;;;;;;;4984240;28;20054;-78
2023/05/13 08:22:00;;;;;;;6.72;3.05;;;;;;;;;;5016993;28;20060;-77
2023/05/13 08:24:28;;;;;;;4.95;2.83;;;;;;;;;;5000411;28;20053;-80
2023/05/13 08:26:58;;;;;;;2.80;2.60;;;;;;;;;;4984086;28;20065;-78
2023/05/13 08:29:31;;;;;;;;;;;;;;;;;;4990278;28;20061;-81
2023/05/13 08:31:59;;;;;;;3.50;2.75;;;;;;;;;;5019535;28;19955;-84
2023/05/13 08:34:27;;;;;;;6.28;2.90;;;;;;;;;;4986867;28;20054;-84
2023/05/13 08:36:54;;;;;;;2.92;2.65;;;;;;;;;;4988104;28;20054;-77
2023/05/13 08:39:22;;;;;;;2.90;2.60;;;;;;;;;;5019693;28;20049;-78
2023/05/13 08:41:49;;;;;;;4.25;3.30;;;;;;;;;;4977773;28;20049;-77
2023/05/13 08:44:17;;;;;;;3.28;2.80;;;;;;;;;;4986620;28;20100;-77
2023/05/13 08:47:01;;;;;;;2.72;2.50;;;;;;;;;;4984171;28;20041;-77
2023/05/13 08:49:34;;;;;;;3.60;2.70;;;;;;;;;;4981253;28;20068;-77
2023/05/13 08:52:04;;;;;;;;;;;;;;;;;;4986582;28;20648;-77
2023/05/13 08:54:37;;;;;;;2.88;2.67;;;;;;;;;;5016739;28;19922;-77
2023/05/13 08:57:10;;;;;;;2.88;2.47;;;;;;;;;;4973481;28;20481;-77
2023/05/13 08:59:38;;;;;;;3.40;2.50;;;;;;;;;;5002191;28;20054;-77
2023/05/13 09:02:05;;;;;;;3.63;2.97;;;;;;;;;;5017760;28;20060;-77
2023/05/13 09:04:36;;;;;;;13.27;3.58;;;;;;;;;;5001202;28;20391;-77
2023/05/13 09:07:07;;;;;;;2.35;2.15;;;;;;;;;;4981837;28;20057;-77
2023/05/13 09:09:35;;;;;;;3.53;2.60;;;;;;;;;;5002295;28;20064;-77
2023/05/13 09:12:03;;;;;;;3.85;3.15;;;;;;;;;;5001746;28;20497;-78
2023/05/13 09:14:33;;;;;;;2.80;2.53;;;;;;;;;;4987120;28;20068;-77
2023/05/13 09:17:09;;;;;;;2.97;2.70;;;;;;;;;;5019081;28;20058;-77
2023/05/13 09:19:40;;;;;;;2.47;2.28;;;;;;;;;;5001071;28;20046;-77
2023/05/13 09:22:19;;;;;;;3.17;2.28;;;;;;;;;;4986152;28;20060;-77
2023/05/13 09:24:56;;;;;;;3.63;2.60;;;;;;;;;;5002054;28;20050;-77
2023/05/13 09:27:39;;;;;;;3.42;2.47;;;;;;;;;;5004795;28;20072;-77
2023/05/13 09:30:07;;;;;;;2.40;2.15;;;;;;;;;;5004276;28;20049;-77
2023/05/13 09:32:34;;;;;;;2.75;2.45;;;;;;;;;;4987505;28;20340;-77
2023/05/13 09:35:15;;;;;;;2.97;2.40;;;;;;;;;;5019037;28;20128;-77
2023/05/13 09:37:47;;;;;;;2.42;2.22;;;;;;;;;;5018027;28;20054;-77
2023/05/13 09:40:17;;;;;;;3.58;2.47;;;;;;;;;;5029612;28;20081;-78
2023/05/13 09:42:45;;;;;;;2.45;2.25;;;;;;;;;;5019497;28;20141;-78
2023/05/13 09:45:14;;;;;;;2.30;2.10;;;;;;;;;;5003733;28;20140;-78
2023/05/13 09:47:42;;;;;;;3.20;2.90;;;;;;;;;;5016932;28;20141;-77
2023/05/13 09:50:11;;;;;;;2.10;1.90;;;;;;;;;;5018543;28;20046;-77
2023/05/13 09:53:11;;;;;;;2.13;1.92;;;;;;;;;;5017184;28;20030;-77
2023/05/13 09:55:48;;;;;;;3.88;2.15;;;;;;;;;;5014396;28;20051;-77
2023/05/13 09:58:22;;;;;;;3.67;3.28;;;;;;;;;;4998561;28;20077;-77
2023/05/13 10:00:53;;;;;;;3.20;2.55;;;;;;;;;;4981868;28;20123;-77
2023/05/13 10:03:26;;;;;;;3.80;2.13;;;;;;;;;;5020214;28;20037;-77
2023/05/13 10:05:54;;;;;;;2.65;2.30;;;;;;;;;;5008127;28;20149;-78
2023/05/13 10:08:22;;;;;;;2.50;2.30;;;;;;;;;;4988486;28;20057;-78
2023/05/13 10:10:53;;;;;;;2.33;2.13;;;;;;;;;;4979622;28;20104;-77
2023/05/13 10:13:24;;;;;;;4.28;2.53;;;;;;;;;;5003573;28;20050;-77
2023/05/13 10:15:59;;;;;;;2.75;2.53;;;;;;;;;;5010932;28;20061;-77
2023/05/13 10:18:33;;;;;;;4.00;2.50;;;;;;;;;;5007846;28;20076;-77
2023/05/13 10:21:15;;;;;;;2.70;2.50;;;;;;;;;;5032738;28;20187;-77
2023/05/13 10:23:53;;;;;;;3.95;2.58;;;;;;;;;;5011988;28;20031;-77
2023/05/13 10:26:25;;;;;;;3.00;2.72;;;;;;;;;;5018384;28;20081;-77
2023/05/13 10:29:01;;;;;;;2.87;2.57;;;;;;;;;;5018281;28;20054;-77
2023/05/13 10:31:34;;;;;;;3.35;2.55;;;;;;;;;;5002719;28;20081;-76
2023/05/13 10:34:05;;;;;;;2.70;2.53;;;;;;;;;;4992424;28;20526;-77
2023/05/13 10:36:46;;;;;;;4.95;3.20;;;;;;;;;;5015222;28;20109;-78
2023/05/13 10:39:39;;;;;;;2.92;2.63;;;;;;;;;;4996420;28;20507;-78
2023/05/13 10:42:37;;;;;;;3.17;2.88;;;;;;;;;;5008738;28;20065;-78
2023/05/13 10:45:18;;;;;;;3.30;3.00;;;;;;;;;;5014834;28;20050;-78
2023/05/13 10:47:55;;;;;;;4.03;2.90;;;;;;;;;;5000050;28;20084;-78
2023/05/13 10:50:24;;;;;;;4.10;3.20;;;;;;;;;;5000380;28;20045;-78
2023/05/13 10:53:05;;;;;;;2.83;2.55;;;;;;;;;;4999401;28;20069;-77
2023/05/13 10:55:43;;;;;;;3.25;2.72;;;;;;;;;;5015027;28;20136;-77
2023/05/13 10:58:13;;;;;;;2.90;2.70;;;;;;;;;;4998948;28;20441;-78
2023/05/13 11:00:46;;;;;;;3.13;2.83;;;;;;;;;;4992420;28;20076;-77
2023/05/13 11:03:17;;;;;;;2.63;2.40;;;;;;;;;;5017421;28;20046;-77
2023/05/13 11:06:13;;;;;;;3.05;2.75;;;;;;;;;;5014802;28;20054;-78
2023/05/13 11:08:55;;;;;;;4.35;2.63;;;;;;;;;;4999502;28;20050;-78
2023/05/13 11:11:35;;;;;;;3.88;2.30;;;;;;;;;;4998471;28;20058;-77
2023/05/13 11:14:40;;;;;;;2.97;2.78;;;;;;;;;;5002466;28;20054;-77
2023/05/13 11:17:21;;;;;;;;;;;;;;;;;;;;;
2023/05/13 11:19:52;;;;;;;4.13;2.70;;;;;;;;;;5007629;28;20054;-74
2023/05/13 11:22:22;;;;;;;2.78;2.50;;;;;;;;;;4999734;28;20060;-76
2023/05/13 11:25:09;;;;;;;2.78;2.50;;;;;;;;;;5007932;28;20107;-75
2023/05/13 11:27:39;;;;;;;3.05;2.75;;;;;;;;;;4976419;28;20498;-75
2023/05/13 11:30:20;;;;;;;3.33;2.20;;;;;;;;;;4990560;28;20275;-75
2023/05/13 11:32:57;;;;;;;4.18;2.50;;;;;;;;;;4997645;28;20050;-76
2023/05/13 11:35:30;;;;;;;3.15;2.25;;;;;;;;;;5025357;28;20447;-75
2023/05/13 11:38:00;;;;;;;;;;;;;;;;;;5012387;28;20418;-75
2023/05/13 11:40:29;;;;;;;3.60;2.33;;;;;;;;;;5012768;28;19987;-76
2023/05/13 11:43:04;;;;;;;2.33;2.13;;;;;;;;;;4998445;28;20054;-76
2023/05/13 11:45:39;;;;;;;2.20;1.80;;;;;;;;;;5013926;28;20794;-76
2023/05/13 11:48:25;;;;;;;3.42;2.42;;;;;;;;;;5009107;28;20100;-76
2023/05/13 11:50:59;;;;;;;4.93;2.58;;;;;;;;;;4996203;28;20065;-76
2023/05/13 11:53:27;;;;;;;2.58;2.20;;;;;;;;;;5013575;28;20502;-75
2023/05/13 11:56:13;;;;;;;2.40;2.20;;;;;;;;;;4997408;28;20116;-74
2023/05/13 11:58:43;;;;;;;2.85;2.10;;;;;;;;;;4978890;28;20581;-75
2023/05/13 12:01:14;;;;;;;4.70;2.00;;;;;;;;;;5012755;28;20457;-74
2023/05/13 12:04:00;;;;;;;4.40;2.35;;;;;;;;;;5013919;28;20651;-74
2023/05/13 12:06:43;;;;;;;2.73;2.50;;;;;;;;;;5005689;28;20513;-73
2023/05/13 12:09:14;;;;;;;2.45;2.20;;;;;;;;;;5012501;28;20089;-73
2023/05/13 12:11:42;;;;;;;2.55;2.35;;;;;;;;;;5013192;28;20058;-74
2023/05/13 12:14:20;;;;;;;5.03;2.53;;;;;;;;;;5003989;28;20425;-73
2023/05/13 12:16:54;;;;;;;2.20;2.00;;;;;;;;;;5012569;28;20429;-74
2023/05/13 12:19:29;;;;;;;3.33;2.17;;;;;;;;;;4981564;28;20050;-73
2023/05/13 12:22:05;;;;;;;;;;;;;;;;;;5013464;28;20578;-74
2023/05/13 12:24:35;;;;;;;3.33;2.60;;;;;;;;;;5012966;28;19921;-74
2023/05/13 12:27:06;;;;;;;2.58;2.20;;;;;;;;;;5012292;28;20058;-74
2023/05/13 12:29:41;;;;;;;3.35;2.05;;;;;;;;;;4996724;28;20414;-74
2023/05/13 12:32:17;;;;;;;2.80;2.42;;;;;;;;;;4995140;28;20053;-75
2023/05/13 12:34:54;;;;;;;2.22;2.03;;;;;;;;;;5005056;28;20046;-74
2023/05/13 12:37:42;;;;;;;3.20;2.42;;;;;;;;;;5011620;28;20065;-74
2023/05/13 12:40:11;;;;;;;4.65;2.80;;;;;;;;;;5011320;28;20429;-76
2023/05/13 12:42:46;;;;;;;4.15;2.30;;;;;;;;;;5022653;28;20057;-83
2023/05/13 12:45:14;;;;;;;2.78;2.50;;;;;;;;;;5016363;28;20053;-75
2023/05/13 12:47:50;;;;;;;2.33;2.15;;;;;;;;;;5013441;28;20541;-76
2023/05/13 12:50:40;;;;;;;3.28;2.13;;;;;;;;;;5014962;28;20042;-75
2023/05/13 12:53:09;;;;;;;2.53;2.30;;;;;;;;;;5012632;28;20104;-75
2023/05/13 12:55:47;;;;;;;3.22;2.28;;;;;;;;;;5012289;28;20512;-75
2023/05/13 12:58:16;;;;;;;2.63;2.42;;;;;;;;;;5005008;28;20359;-75
2023/05/13 13:00:45;;;;;;;2.58;2.38;;;;;;;;;;5012446;28;20053;-75
2023/05/13 13:03:18;;;;;;;2.80;1.90;;;;;;;;;;5012457;28;20093;-75
2023/05/13 13:05:50;;;;;;;2.67;2.30;;;;;;;;;;5011708;28;20060;-82
2023/05/13 13:08:22;;;;;;;2.50;2.30;;;;;;;;;;5003331;28;20064;-79
2023/05/13 13:10:55;;;;;;;2.47;2.28;;;;;;;;;;5013975;28;20502;-80
2023/05/13 13:13:29;;;;;;;3.50;2.58;;;;;;;;;;4998169;28;20084;-78
2023/05/13 13:16:10;;;;;;;2.63;2.40;;;;;;;;;;4999921;28;20056;-77
2023/05/13 13:18:50;;;;;;;4.65;3.15;;;;;;;;;;4998664;28;20070;-78
2023/05/13 13:21:31;;;;;;;3.60;2.20;;;;;;;;;;5033215;28;20046;-78
2023/05/13 13:24:06;;;;;;;2.38;2.17;;;;;;;;;;5016343;28;20474;-79
2023/05/13 13:26:48;;;;;;;3.47;2.22;;;;;;;;;;5011666;28;20062;-78
2023/05/13 13:29:23;;;;;;;2.97;2.67;;;;;;;;;;5012540;28;20150;-79
2023/05/13 13:31:59;;;;;;;4.53;2.30;;;;;;;;;;5013372;28;20073;-78
2023/05/13 13:34:37;;;;;;;2.50;2.30;;;;;;;;;;5009296;28;20060;-78
2023/05/13 13:37:06;;;;;;;2.72;2.42;;;;;;;;;;4994682;28;20057;-78
2023/05/13 13:39:40;;;;;;;2.55;2.35;;;;;;;;;;5011866;28;20140;-78
2023/05/13 13:42:13;;;;;;;3.10;2.88;;;;;;;;;;4991593;28;20068;-78
2023/05/13 13:44:53;;;;;;;2.45;2.25;;;;;;;;;;5004464;28;20053;-78
2023/05/13 13:47:30;;;;;;;2.70;2.50;;;;;;;;;;4985402;28;20064;-78
2023/05/13 13:50:05;;;;;;;3.08;2.20;;;;;;;;;;4980905;28;20499;-78
2023/05/13 13:52:42;;;;;;;2.38;2.25;;;;;;;;;;5011973;28;20050;-78
2023/05/13 13:55:14;;;;;;;3.90;2.63;;;;;;;;;;5012847;28;20109;-78
2023/05/13 13:57:45;;;;;;;2.63;2.42;;;;;;;;;;5010925;28;20049;-78
2023/05/13 14:00:14;;;;;;;2.80;2.45;;;;;;;;;;4990235;28;20059;-78
2023/05/13 14:02:51;;;;;;;3.95;2.88;;;;;;;;;;4995493;28;20053;-78
2023/05/13 14:05:29;;;;;;;3.08;2.40;;;;;;;;;;5012386;28;20085;-80
2023/05/13 14:07:59;;;;;;;3.20;2.60;;;;;;;;;;4995796;28;20545;-79
2023/05/13 14:10:27;;;;;;;3.15;2.65;;;;;;;;;;4998078;28;20477;-78
2023/05/13 14:13:01;;;;;;;2.85;2.55;;;;;;;;;;5014754;28;20501;-79
2023/05/13 14:15:32;;;;;;;2.65;2.42;;;;;;;;;;4997918;28;20049;-80
2023/05/13 14:17:59;;;;;;;3.80;3.35;;;;;;;;;;4982505;28;20058;-80
2023/05/13 14:20:35;;;;;;;3.50;2.92;;;;;;;;;;5005396;28;20054;-80
2023/05/13 14:23:09;;;;;;;9.23;2.75;;;;;;;;;;5013208;28;20050;-80
2023/05/13 14:25:46;;;;;;;3.22;2.92;;;;;;;;;;4996722;28;20596;-78
2023/05/13 14:28:18;;;;;;;3.97;3.00;;;;;;;;;;5001113;28;20054;-77
2023/05/13 14:30:56;;;;;;;2.88;2.67;;;;;;;;;;4979975;28;20588;-77
2023/05/13 14:33:38;;;;;;;4.63;3.08;;;;;;;;;;4990698;28;20050;-77
2023/05/13 14:36:19;;;;;;;4.82;2.42;;;;;;;;;;4994022;28;20041;-78
2023/05/13 14:38:52;;;;;;;4.55;2.40;;;;;;;;;;4993265;28;20049;-77
2023/05/13 14:41:25;;;;;;;2.83;2.60;;;;;;;;;;5007821;28;20060;-77
2023/05/13 14:43:59;;;;;;;4.53;2.83;;;;;;;;;;5007752;28;20060;-76
2023/05/13 14:46:32;;;;;;;6.15;2.70;;;;;;;;;;5004396;28;20064;-77
2023/05/13 14:49:02;;;;;;;4.35;2.60;;;;;;;;;;5008026;28;20480;-76
2023/05/13 14:51:34;;;;;;;3.72;3.05;;;;;;;;;;5002633;28;20050;-76
2023/05/13 14:54:04;;;;;;;3.70;2.50;;;;;;;;;;5007866;28;20046;-76
2023/05/13 14:56:37;;;;;;;2.63;2.42;;;;;;;;;;5006968;28;20081;-76
2023/05/13 14:59:14;;;;;;;2.67;2.47;;;;;;;;;;5007813;28;20068;-77
2023/05/13 15:01:42;;;;;;;2.40;2.20;;;;;;;;;;4991785;28;20065;-76
2023/05/13 15:04:11;;;;;;;10.27;5.32;;;;;;;;;;5007457;28;20089;-76
2023/05/13 15:06:39;;;;;;;16.55;9.52;;;;;;;;;;5007154;28;20125;-77
2023/05/13 15:09:09;;;;;;;11.70;8.20;;;;;;;;;;5003937;28;20050;-77
2023/05/13 15:11:37;;;;;;;7.63;5.25;;;;;;;;;;5007105;28;20060;-77
2023/05/13 15:14:14;;;;;;;21.00;13.23;;;;;;;;;;4993043;28;20050;-77
2023/05/13 15:16:46;;;;;;;11.43;7.22;;;;;;;;;;5006651;28;20050;-77